createdAt,value
2024-04-19T00:04:24.311Z,7.5
2024-04-19T00:19:24.266Z,7.5
2024-04-19T00:34:24.322Z,7.4
2024-04-19T00:49:24.284Z,7.4
2024-04-19T01:04:24.240Z,7.2
2024-04-19T01:19:24.244Z,6.8
2024-04-19T01:34:24.331Z,6.1
2024-04-19T01:49:24.284Z,6.1
2024-04-19T02:04:24.292Z,6.1
2024-04-19T02:19:24.276Z,6
2024-04-19T02:34:24.323Z,6
2024-04-19T02:49:24.276Z,5.9
2024-04-19T03:04:24.383Z,5.8
2024-04-19T03:19:24.271Z,5.5
2024-04-19T03:34:24.396Z,5.2
2024-04-19T03:49:24.308Z,4.9
2024-04-19T04:04:24.291Z,4.8
2024-04-19T04:19:24.289Z,4.8
2024-04-19T04:34:24.269Z,4.8
2024-04-19T04:49:24.275Z,4.8
2024-04-19T05:04:24.310Z,4.9
2024-04-19T05:19:24.283Z,5.1
2024-04-19T05:34:24.275Z,5.2
2024-04-19T05:49:24.338Z,5.2
2024-04-19T06:04:24.290Z,5.4
2024-04-19T06:19:24.299Z,5.6
2024-04-19T06:34:24.288Z,5.8
2024-04-19T06:49:24.304Z,6.1
2024-04-19T07:04:24.320Z,6.3
2024-04-19T07:19:24.328Z,6.5
2024-04-19T07:34:24.276Z,6.7
2024-04-19T07:49:24.298Z,6.8
2024-04-19T08:04:24.420Z,7
2024-04-19T08:19:24.272Z,7.1
2024-04-19T08:34:24.291Z,7.2
2024-04-19T08:49:24.301Z,7.4
2024-04-19T09:04:24.430Z,7.6
2024-04-19T09:19:24.271Z,8
2024-04-19T09:34:24.280Z,8.3
2024-04-19T09:49:24.279Z,8.3
2024-04-19T10:04:24.356Z,7.8
2024-04-19T10:19:24.291Z,7.2
2024-04-19T10:34:24.277Z,7.1
2024-04-19T10:49:24.345Z,7.4
2024-04-19T11:04:24.343Z,7.3
2024-04-19T11:19:24.312Z,7.4
2024-04-19T11:34:24.280Z,7.2
2024-04-19T11:49:24.329Z,7.5
2024-04-19T12:04:24.302Z,8.1
2024-04-19T12:19:24.451Z,8.6
2024-04-19T12:34:24.288Z,8.1
2024-04-19T12:49:24.333Z,8.5
2024-04-19T13:04:24.355Z,9.9
2024-04-19T13:19:24.302Z,10.1
2024-04-19T13:34:24.260Z,10.5
2024-04-19T13:49:24.350Z,4.5
2024-04-19T14:04:24.285Z,5.6
2024-04-19T14:19:24.273Z,7.9
2024-04-19T14:34:24.293Z,6.8
2024-04-19T14:49:24.333Z,7.4
2024-04-19T15:04:24.390Z,8.2
2024-04-19T15:19:24.269Z,7.8
2024-04-19T15:34:35.422Z,7.6
2024-04-19T15:49:24.270Z,6.2
2024-04-19T16:04:24.353Z,7.5
2024-04-19T16:19:24.321Z,8.9
2024-04-19T16:34:24.279Z,9.4
2024-04-19T16:49:24.272Z,8.4
2024-04-19T17:04:24.304Z,8
2024-04-19T17:19:24.261Z,7.8
2024-04-19T17:34:24.304Z,6.6
2024-04-19T17:49:24.270Z,6.6
2024-04-19T18:04:24.368Z,6.7
2024-04-19T18:19:24.297Z,6.6
2024-04-19T18:34:24.266Z,6.6
2024-04-19T18:49:24.301Z,5.7
2024-04-19T19:04:24.351Z,5.3
2024-04-19T19:19:24.301Z,5.5
2024-04-19T19:34:24.257Z,5.4
2024-04-19T19:49:24.279Z,5.4
2024-04-19T20:04:24.322Z,5.6
2024-04-19T20:19:24.416Z,5.5
2024-04-19T20:34:24.274Z,5.5
2024-04-19T20:49:24.334Z,5.5
2024-04-19T21:04:24.308Z,5.4
2024-04-19T21:19:24.282Z,5.3
2024-04-19T21:34:24.290Z,5.4
2024-04-19T21:49:24.291Z,5.5
2024-04-19T22:04:24.343Z,5.4
2024-04-19T22:19:24.312Z,5.4
2024-04-19T22:34:24.277Z,5.2
2024-04-19T22:49:24.295Z,5.2
2024-04-19T23:04:24.389Z,4.9
2024-04-19T23:19:24.269Z,4.5
2024-04-19T23:34:24.380Z,4.3
2024-04-19T23:49:24.282Z,4.3
